createdAt,value
2023-01-29T00:02:17.576Z,43.72
2023-01-29T00:05:20.732Z,43.74
2023-01-29T00:08:12.616Z,43.82
2023-01-29T00:11:19.324Z,43.96
2023-01-29T00:14:07.893Z,43.93
2023-01-29T00:16:38.628Z,44.00
2023-01-29T00:19:28.202Z,43.86
2023-01-29T00:25:37.157Z,43.81
2023-01-29T00:28:22.909Z,43.79
2023-01-29T00:30:49.867Z,43.67
2023-01-29T00:33:20.061Z,43.52
2023-01-29T00:36:10.691Z,43.57
2023-01-29T00:38:40.777Z,43.63
2023-01-29T00:41:15.283Z,43.72
2023-01-29T00:43:42.049Z,43.66
2023-01-29T00:46:11.792Z,43.46
2023-01-29T00:48:38.945Z,43.57
2023-01-29T00:51:09.273Z,43.49
2023-01-29T00:53:36.280Z,43.45
2023-01-29T00:56:06.998Z,43.46
2023-01-29T00:58:39.592Z,43.38
2023-01-29T01:01:06.745Z,43.33
2023-01-29T01:03:36.188Z,43.27
2023-01-29T01:06:10.982Z,43.28
2023-01-29T01:08:38.010Z,43.31
2023-01-29T01:11:09.903Z,43.34
2023-01-29T01:13:36.606Z,43.31
2023-01-29T01:16:16.892Z,43.27
2023-01-29T01:18:49.901Z,43.37
2023-01-29T01:21:19.572Z,43.31
2023-01-29T01:24:09.525Z,43.31
2023-01-29T01:26:40.113Z,43.31
2023-01-29T01:29:10.164Z,43.36
2023-01-29T01:31:46.034Z,43.34
2023-01-29T01:34:34.903Z,43.31
2023-01-29T01:37:08.025Z,43.34
2023-01-29T01:39:39.115Z,43.34
2023-01-29T01:42:13.992Z,43.44
2023-01-29T01:45:04.180Z,43.28
2023-01-29T01:47:39.404Z,43.39
2023-01-29T01:50:15.051Z,43.26
2023-01-29T01:52:49.771Z,43.33
2023-01-29T01:55:25.744Z,43.34
2023-01-29T01:57:58.090Z,43.33
2023-01-29T02:00:28.305Z,43.58
2023-01-29T02:03:05.159Z,43.33
2023-01-29T02:05:39.833Z,43.38
2023-01-29T02:08:13.750Z,43.31
2023-01-29T02:10:45.232Z,43.45
2023-01-29T02:13:20.460Z,43.23
2023-01-29T02:15:50.676Z,43.33
2023-01-29T02:18:23.150Z,43.25
2023-01-29T02:21:22.187Z,43.36
2023-01-29T02:24:04.503Z,43.43
2023-01-29T02:27:05.823Z,43.64
2023-01-29T02:29:43.182Z,43.37
2023-01-29T02:32:17.300Z,43.65
2023-01-29T02:35:00.793Z,43.61
2023-01-29T02:37:51.161Z,43.47
2023-01-29T02:40:31.133Z,43.36
2023-01-29T02:43:08.048Z,43.55
2023-01-29T02:45:41.107Z,43.39
2023-01-29T02:48:11.574Z,43.66
2023-01-29T02:50:47.501Z,43.69
2023-01-29T02:53:18.556Z,43.53
2023-01-29T02:55:55.612Z,43.84
2023-01-29T02:58:38.606Z,43.67
2023-01-29T03:01:23.460Z,43.80
2023-01-29T03:04:02.857Z,43.75
2023-01-29T03:06:37.708Z,43.43
2023-01-29T03:09:25.841Z,43.98
2023-01-29T03:12:08.244Z,43.57
2023-01-29T03:14:45.275Z,43.66
2023-01-29T03:17:17.341Z,43.61
2023-01-29T03:19:49.583Z,43.48
2023-01-29T03:22:19.091Z,43.57
2023-01-29T03:24:58.495Z,43.77
2023-01-29T03:27:41.231Z,43.65
2023-01-29T03:30:17.008Z,43.67
2023-01-29T03:32:50.641Z,43.53
2023-01-29T03:35:25.793Z,43.49
2023-01-29T03:37:53.248Z,44.01
2023-01-29T03:40:20.398Z,44.11
2023-01-29T03:43:10.039Z,43.76
2023-01-29T03:45:45.189Z,44.15
2023-01-29T03:48:45.256Z,43.76
2023-01-29T03:51:32.233Z,44.19
2023-01-29T03:54:17.196Z,44.01
2023-01-29T03:57:03.070Z,43.88
2023-01-29T03:59:46.719Z,43.68
2023-01-29T04:02:35.046Z,44.03
2023-01-29T04:05:12.625Z,43.85
2023-01-29T04:07:45.480Z,43.49
2023-01-29T04:10:25.227Z,43.57
2023-01-29T04:13:06.250Z,43.82
2023-01-29T04:15:40.161Z,43.45
2023-01-29T04:18:07.324Z,43.67
2023-01-29T04:20:36.247Z,43.64
2023-01-29T04:23:08.418Z,44.07
2023-01-29T04:25:47.192Z,43.83
2023-01-29T04:28:34.846Z,44.01
2023-01-29T04:31:08.667Z,43.91
2023-01-29T04:33:58.578Z,43.49
2023-01-29T04:36:47.704Z,43.92
2023-01-29T04:39:47.279Z,43.78
2023-01-29T04:42:32.405Z,43.64
2023-01-29T04:45:27.686Z,43.76
2023-01-29T04:48:14.310Z,43.83
2023-01-29T04:51:11.741Z,43.94
2023-01-29T04:53:57.807Z,43.72
2023-01-29T04:56:49.217Z,43.33
2023-01-29T04:59:23.973Z,43.50
2023-01-29T05:01:58.776Z,43.13
2023-01-29T05:04:35.033Z,43.30
2023-01-29T05:07:07.706Z,43.55
2023-01-29T05:09:39.727Z,43.39
2023-01-29T05:12:26.467Z,43.52
2023-01-29T05:14:56.749Z,43.61
2023-01-29T05:17:46.768Z,43.47
2023-01-29T05:20:15.040Z,43.65
2023-01-29T05:22:44.933Z,43.18
2023-01-29T05:25:32.889Z,43.12
2023-01-29T05:31:12.886Z,43.42
2023-01-29T05:33:49.253Z,43.50
2023-01-29T05:36:17.565Z,43.42
2023-01-29T05:39:04.425Z,43.39
2023-01-29T05:42:10.088Z,43.49
2023-01-29T05:44:50.367Z,43.55
2023-01-29T05:47:27.252Z,43.56
2023-01-29T05:49:55.459Z,43.61
2023-01-29T05:52:22.843Z,43.64
2023-01-29T05:54:53.155Z,43.64
2023-01-29T05:57:25.787Z,43.49
2023-01-29T05:59:52.734Z,42.19
2023-01-29T06:02:25.732Z,41.28
2023-01-29T06:04:55.948Z,40.87
2023-01-29T06:07:30.829Z,40.40
2023-01-29T06:10:00.684Z,40.20
2023-01-29T06:12:28.269Z,39.98
2023-01-29T06:14:55.204Z,39.98
2023-01-29T06:17:24.943Z,39.84
2023-01-29T06:19:51.954Z,39.83
2023-01-29T06:22:24.998Z,39.57
2023-01-29T06:24:52.072Z,39.37
2023-01-29T06:27:22.238Z,39.49
2023-01-29T06:29:52.277Z,40.24
2023-01-29T06:32:19.675Z,40.55
2023-01-29T06:34:49.984Z,41.21
2023-01-29T06:37:18.573Z,41.46
2023-01-29T06:39:51.964Z,41.65
2023-01-29T06:42:19.047Z,41.72
2023-01-29T06:44:49.671Z,42.01
2023-01-29T06:47:16.573Z,42.04
2023-01-29T06:49:45.957Z,42.04
2023-01-29T06:52:16.490Z,42.17
2023-01-29T06:54:43.725Z,42.25
2023-01-29T06:57:10.765Z,42.43
2023-01-29T06:59:41.842Z,42.36
2023-01-29T07:02:11.592Z,42.32
2023-01-29T07:04:42.411Z,42.22
2023-01-29T07:07:09.630Z,42.41
2023-01-29T07:09:37.072Z,42.31
2023-01-29T07:12:08.069Z,42.36
2023-01-29T07:14:41.575Z,42.39
2023-01-29T07:17:11.630Z,42.50
2023-01-29T07:19:38.899Z,42.62
2023-01-29T07:22:09.121Z,42.56
2023-01-29T07:24:36.179Z,42.47
2023-01-29T07:27:02.986Z,42.62
2023-01-29T07:29:30.217Z,42.41
2023-01-29T07:31:57.633Z,42.38
2023-01-29T07:34:24.617Z,42.31
2023-01-29T07:36:54.147Z,42.29
2023-01-29T07:39:21.418Z,42.16
2023-01-29T07:41:51.647Z,42.25
2023-01-29T07:44:22.745Z,42.40
2023-01-29T07:46:53.539Z,43.13
2023-01-29T07:49:24.897Z,43.30
2023-01-29T07:51:58.498Z,42.95
2023-01-29T07:54:27.202Z,42.99
2023-01-29T07:57:00.327Z,42.97
2023-01-29T07:59:27.546Z,42.96
2023-01-29T08:01:58.148Z,42.95
2023-01-29T08:04:25.524Z,43.18
2023-01-29T08:06:58.602Z,42.99
2023-01-29T08:09:28.758Z,42.71
2023-01-29T08:11:58.809Z,42.88
2023-01-29T08:14:31.927Z,43.78
2023-01-29T08:17:01.869Z,44.12
2023-01-29T08:19:34.997Z,44.10
2023-01-29T08:22:05.318Z,44.06
2023-01-29T08:24:53.231Z,44.31
2023-01-29T08:27:24.583Z,44.02
2023-01-29T08:29:54.342Z,43.86
2023-01-29T08:32:23.883Z,44.08
2023-01-29T08:34:53.340Z,43.86
2023-01-29T08:37:24.472Z,43.83
2023-01-29T08:39:58.105Z,43.99
2023-01-29T08:42:27.678Z,43.97
2023-01-29T08:45:14.184Z,44.07
2023-01-29T08:47:47.360Z,44.19
2023-01-29T08:50:17.452Z,44.07
2023-01-29T08:52:45.820Z,44.19
2023-01-29T08:55:15.746Z,44.12
2023-01-29T08:57:45.395Z,44.01
2023-01-29T09:00:12.581Z,43.84
2023-01-29T09:02:41.727Z,43.97
2023-01-29T09:05:09.613Z,43.81
2023-01-29T09:07:36.453Z,43.97
2023-01-29T09:10:45.352Z,43.91
2023-01-29T09:13:12.000Z,43.81
2023-01-29T09:15:41.637Z,43.70
2023-01-29T09:18:08.325Z,43.59
2023-01-29T09:20:37.946Z,43.48
2023-01-29T09:23:09.671Z,43.50
2023-01-29T09:25:39.269Z,43.47
2023-01-29T09:28:06.090Z,43.50
2023-01-29T09:30:36.356Z,43.40
2023-01-29T09:33:07.316Z,43.44
2023-01-29T09:35:34.715Z,43.36
2023-01-29T09:38:01.521Z,43.34
2023-01-29T09:41:10.114Z,43.31
2023-01-29T09:44:06.231Z,43.27
2023-01-29T09:46:43.523Z,43.28
2023-01-29T09:49:27.628Z,43.42
2023-01-29T09:52:05.018Z,43.46
2023-01-29T09:54:37.641Z,43.46
2023-01-29T09:57:44.286Z,43.44
2023-01-29T10:00:32.960Z,43.46
2023-01-29T10:03:14.785Z,43.32
2023-01-29T10:06:06.408Z,43.20
2023-01-29T10:09:02.557Z,43.15
2023-01-29T10:11:48.267Z,42.97
2023-01-29T10:14:27.542Z,42.91
2023-01-29T10:17:28.680Z,43.06
2023-01-29T10:20:41.463Z,43.20
2023-01-29T10:23:17.370Z,43.06
2023-01-29T10:25:46.699Z,43.12
2023-01-29T10:28:31.767Z,42.82
2023-01-29T10:31:08.893Z,42.85
2023-01-29T10:34:02.449Z,43.02
2023-01-29T10:36:35.368Z,43.04
2023-01-29T10:39:05.750Z,43.03
2023-01-29T10:41:46.178Z,42.94
2023-01-29T10:44:53.673Z,43.03
2023-01-29T10:47:36.880Z,42.86
2023-01-29T10:50:26.847Z,43.09
2023-01-29T10:52:53.525Z,43.19
2023-01-29T10:55:40.850Z,43.17
2023-01-29T10:58:46.876Z,43.23
2023-01-29T11:01:14.090Z,43.69
2023-01-29T11:03:41.038Z,43.56
2023-01-29T11:06:14.118Z,43.54
2023-01-29T11:08:49.832Z,43.62
2023-01-29T11:11:25.322Z,43.85
2023-01-29T11:14:04.887Z,43.72
2023-01-29T11:16:34.641Z,43.54
2023-01-29T11:19:04.591Z,43.85
2023-01-29T11:21:50.249Z,43.94
2023-01-29T11:24:20.437Z,44.07
2023-01-29T11:26:55.422Z,44.16
2023-01-29T11:29:37.965Z,44.19
2023-01-29T11:32:12.707Z,44.36
2023-01-29T11:34:58.260Z,44.42
2023-01-29T11:37:33.125Z,44.85
2023-01-29T11:40:19.899Z,44.94
2023-01-29T11:42:47.738Z,45.15
2023-01-29T11:45:23.985Z,45.14
2023-01-29T11:47:56.232Z,45.25
2023-01-29T11:50:33.055Z,45.09
2023-01-29T11:53:03.941Z,45.10
2023-01-29T11:55:49.346Z,44.89
2023-01-29T11:58:29.760Z,44.93
2023-01-29T12:00:58.830Z,44.74
2023-01-29T12:03:43.063Z,44.70
2023-01-29T12:06:18.207Z,44.69
2023-01-29T12:08:45.179Z,44.42
2023-01-29T12:11:27.208Z,44.37
2023-01-29T12:13:58.263Z,44.25
2023-01-29T12:16:51.087Z,44.13
2023-01-29T12:19:36.324Z,44.21
2023-01-29T12:22:27.579Z,44.21
2023-01-29T12:24:59.951Z,44.21
2023-01-29T12:28:24.965Z,44.11
2023-01-29T12:31:06.646Z,44.27
2023-01-29T12:33:44.173Z,44.13
2023-01-29T12:36:26.062Z,44.15
2023-01-29T12:38:54.175Z,44.10
2023-01-29T12:41:37.312Z,44.17
2023-01-29T12:44:33.611Z,44.12
2023-01-29T12:47:03.085Z,44.11
2023-01-29T12:49:33.993Z,44.09
2023-01-29T12:52:12.656Z,44.03
2023-01-29T12:55:03.240Z,44.08
2023-01-29T12:57:51.063Z,44.52
2023-01-29T13:00:42.694Z,44.79
2023-01-29T13:03:40.137Z,45.02
2023-01-29T13:06:11.838Z,45.03
2023-01-29T13:08:48.954Z,44.71
2023-01-29T13:11:34.342Z,44.52
2023-01-29T13:14:08.728Z,44.15
2023-01-29T13:16:45.169Z,44.51
2023-01-29T13:19:25.469Z,44.68
2023-01-29T13:21:57.661Z,44.60
2023-01-29T13:24:32.893Z,44.79
2023-01-29T13:26:59.666Z,43.26
2023-01-29T13:29:31.702Z,42.95
2023-01-29T13:32:08.406Z,43.30
2023-01-29T13:34:44.277Z,43.13
2023-01-29T13:37:19.657Z,42.60
2023-01-29T13:39:53.309Z,42.37
2023-01-29T13:42:40.539Z,42.70
2023-01-29T13:45:09.796Z,42.93
2023-01-29T13:47:39.562Z,43.18
2023-01-29T13:50:07.947Z,43.39
2023-01-29T13:52:45.707Z,44.11
2023-01-29T13:55:15.985Z,44.27
2023-01-29T13:57:46.007Z,44.65
2023-01-29T14:00:21.829Z,44.90
2023-01-29T14:03:11.790Z,45.20
2023-01-29T14:05:42.851Z,44.87
2023-01-29T14:08:09.523Z,45.42
2023-01-29T14:10:38.808Z,45.53
2023-01-29T14:13:17.764Z,45.44
2023-01-29T14:15:46.405Z,45.53
2023-01-29T14:18:21.442Z,45.58
2023-01-29T14:20:48.409Z,45.58
2023-01-29T14:23:32.529Z,45.51
2023-01-29T14:26:01.071Z,45.86
2023-01-29T14:28:33.235Z,45.86
2023-01-29T14:31:03.635Z,45.95
2023-01-29T14:33:38.208Z,45.71
2023-01-29T14:36:13.788Z,45.47
2023-01-29T14:38:47.782Z,45.50
2023-01-29T14:41:37.397Z,45.66
2023-01-29T14:44:41.996Z,45.35
2023-01-29T14:47:21.974Z,45.03
2023-01-29T14:50:03.103Z,44.77
2023-01-29T14:52:39.005Z,44.64
2023-01-29T14:55:41.073Z,44.56
2023-01-29T14:58:18.709Z,44.74
2023-01-29T15:00:50.770Z,44.72
2023-01-29T15:03:27.630Z,44.44
2023-01-29T15:05:56.059Z,44.64
2023-01-29T15:08:51.012Z,44.65
2023-01-29T15:11:36.140Z,44.86
2023-01-29T15:14:31.853Z,45.25
2023-01-29T15:17:21.115Z,45.26
2023-01-29T15:19:49.504Z,44.96
2023-01-29T15:22:21.682Z,44.40
2023-01-29T15:25:03.889Z,44.49
2023-01-29T15:27:31.275Z,44.75
2023-01-29T15:30:02.888Z,44.82
2023-01-29T15:32:36.444Z,44.74
2023-01-29T15:35:35.325Z,44.53
2023-01-29T15:38:01.898Z,44.27
2023-01-29T15:40:29.059Z,43.48
2023-01-29T15:42:55.962Z,43.10
2023-01-29T15:45:32.993Z,43.00
2023-01-29T15:48:14.458Z,42.87
2023-01-29T15:50:46.238Z,42.48
2023-01-29T15:53:35.778Z,42.21
2023-01-29T15:56:02.729Z,42.15
2023-01-29T15:58:32.376Z,41.83
2023-01-29T16:01:00.961Z,41.79
2023-01-29T16:03:32.716Z,42.03
2023-01-29T16:06:02.762Z,42.61
2023-01-29T16:08:33.339Z,42.50
2023-01-29T16:11:03.264Z,42.77
2023-01-29T16:13:42.772Z,42.81
2023-01-29T16:16:18.855Z,42.85
2023-01-29T16:18:58.960Z,42.90
2023-01-29T16:21:32.767Z,42.92
2023-01-29T16:24:01.212Z,43.02
2023-01-29T16:26:43.559Z,42.89
2023-01-29T16:29:15.705Z,43.01
2023-01-29T16:31:50.449Z,42.96
2023-01-29T16:34:22.967Z,43.08
2023-01-29T16:36:50.079Z,42.98
2023-01-29T16:39:44.418Z,43.10
2023-01-29T16:42:14.413Z,43.78
2023-01-29T16:44:51.448Z,44.20
2023-01-29T16:47:27.725Z,43.98
2023-01-29T16:50:00.030Z,43.85
2023-01-29T16:52:33.296Z,43.93
2023-01-29T16:55:13.762Z,43.64
2023-01-29T16:57:41.472Z,43.98
2023-01-29T17:00:27.947Z,43.99
2023-01-29T17:03:00.766Z,43.60
2023-01-29T17:05:31.123Z,43.55
2023-01-29T17:07:58.919Z,43.63
2023-01-29T17:10:33.189Z,43.47
2023-01-29T17:13:12.325Z,43.36
2023-01-29T17:15:42.214Z,43.33
2023-01-29T17:18:25.373Z,43.29
2023-01-29T17:20:52.551Z,43.35
2023-01-29T17:23:23.883Z,43.21
2023-01-29T17:25:53.779Z,43.13
2023-01-29T17:28:26.883Z,42.91
2023-01-29T17:31:05.938Z,43.44
2023-01-29T17:33:42.751Z,43.52
2023-01-29T17:36:15.759Z,43.48
2023-01-29T17:38:42.481Z,43.67
2023-01-29T17:41:21.256Z,43.88
2023-01-29T17:43:51.762Z,43.70
2023-01-29T17:46:22.232Z,43.65
2023-01-29T17:48:51.779Z,43.71
2023-01-29T17:51:24.044Z,43.76
2023-01-29T17:53:51.599Z,43.71
2023-01-29T17:56:24.535Z,43.68
2023-01-29T17:58:53.899Z,43.39
2023-01-29T18:01:24.047Z,43.28
2023-01-29T18:03:52.483Z,43.16
2023-01-29T18:06:35.381Z,43.06
2023-01-29T18:09:06.241Z,43.07
2023-01-29T18:11:34.202Z,43.03
2023-01-29T18:14:14.208Z,42.96
2023-01-29T18:16:48.787Z,42.95
2023-01-29T18:19:23.995Z,42.98
2023-01-29T18:22:00.003Z,42.98
2023-01-29T18:24:33.595Z,42.99
2023-01-29T18:27:08.037Z,43.07
2023-01-29T18:29:38.242Z,43.14
2023-01-29T18:32:05.631Z,43.29
2023-01-29T18:34:32.862Z,43.10
2023-01-29T18:36:59.992Z,42.93
2023-01-29T18:39:27.112Z,42.80
2023-01-29T18:41:57.562Z,42.76
2023-01-29T18:44:24.705Z,43.01
2023-01-29T18:46:51.660Z,43.21
2023-01-29T18:49:22.998Z,43.29
2023-01-29T18:51:50.139Z,43.47
2023-01-29T18:54:20.573Z,43.60
2023-01-29T18:57:11.498Z,43.88
2023-01-29T18:59:37.656Z,43.79
2023-01-29T19:02:07.744Z,43.83
2023-01-29T19:04:41.962Z,43.90
2023-01-29T19:07:14.805Z,43.99
2023-01-29T19:09:45.124Z,43.98
2023-01-29T19:12:16.514Z,43.95
2023-01-29T19:14:47.115Z,43.95
2023-01-29T19:17:14.178Z,43.87
2023-01-29T19:19:41.318Z,43.87
2023-01-29T19:22:08.341Z,43.80
2023-01-29T19:24:35.497Z,43.77
2023-01-29T19:27:07.123Z,43.73
2023-01-29T19:29:38.127Z,43.72
2023-01-29T19:32:05.222Z,43.69
2023-01-29T19:34:35.299Z,43.64
2023-01-29T19:37:02.413Z,43.60
2023-01-29T19:39:29.979Z,43.62
2023-01-29T19:41:57.958Z,43.54
2023-01-29T19:44:25.079Z,43.51
2023-01-29T19:47:01.065Z,43.36
2023-01-29T19:49:35.868Z,43.47
2023-01-29T19:52:08.635Z,43.32
2023-01-29T19:54:38.919Z,43.27
2023-01-29T19:57:06.040Z,43.23
2023-01-29T19:59:33.186Z,43.15
2023-01-29T20:02:03.105Z,43.14
2023-01-29T20:04:33.422Z,43.09
2023-01-29T20:07:06.761Z,43.05
2023-01-29T20:09:35.777Z,43.00
2023-01-29T20:12:05.600Z,42.98
2023-01-29T20:14:32.621Z,42.89
2023-01-29T20:17:01.496Z,42.71
2023-01-29T20:19:31.541Z,42.64
2023-01-29T20:22:01.983Z,42.53
2023-01-29T20:24:37.836Z,42.46
2023-01-29T20:27:07.187Z,42.42
2023-01-29T20:29:34.241Z,42.42
2023-01-29T20:32:01.378Z,42.31
2023-01-29T20:34:29.127Z,42.23
2023-01-29T20:37:00.138Z,42.25
2023-01-29T20:39:26.984Z,42.14
2023-01-29T20:41:57.289Z,42.04
2023-01-29T20:44:26.401Z,42.03
2023-01-29T20:46:53.441Z,42.02
2023-01-29T20:49:21.066Z,41.95
2023-01-29T20:51:53.583Z,41.90
2023-01-29T20:54:20.625Z,41.85
2023-01-29T20:56:50.475Z,41.82
2023-01-29T20:59:17.727Z,41.77
2023-01-29T21:01:49.465Z,41.78
2023-01-29T21:04:16.350Z,41.75
2023-01-29T21:06:46.261Z,41.69
2023-01-29T21:09:13.437Z,41.74
2023-01-29T21:11:40.470Z,41.71
2023-01-29T21:14:14.187Z,41.60
2023-01-29T21:16:41.273Z,41.53
2023-01-29T21:19:13.074Z,41.55
2023-01-29T21:21:42.702Z,41.52
2023-01-29T21:24:10.116Z,41.52
2023-01-29T21:26:36.878Z,41.46
2023-01-29T21:29:04.555Z,41.52
2023-01-29T21:31:34.855Z,41.52
2023-01-29T21:34:06.422Z,41.41
2023-01-29T21:36:37.634Z,41.39
2023-01-29T21:39:08.518Z,41.37
2023-01-29T21:41:37.983Z,41.34
2023-01-29T21:44:04.840Z,41.36
2023-01-29T21:46:35.008Z,41.46
2023-01-29T21:49:01.837Z,41.30
2023-01-29T21:51:28.928Z,41.30
2023-01-29T21:53:58.810Z,41.27
2023-01-29T21:56:25.519Z,41.23
2023-01-29T21:58:52.723Z,41.20
2023-01-29T22:01:38.179Z,41.20
2023-01-29T22:04:06.535Z,41.15
2023-01-29T22:06:33.656Z,41.14
2023-01-29T22:09:00.466Z,41.14
2023-01-29T22:11:27.886Z,41.09
2023-01-29T22:13:54.897Z,41.12
2023-01-29T22:16:21.752Z,41.11
2023-01-29T22:18:49.812Z,41.08
2023-01-29T22:21:20.194Z,41.05
2023-01-29T22:23:49.165Z,41.04
2023-01-29T22:26:20.013Z,41.10
2023-01-29T22:28:50.225Z,41.06
2023-01-29T22:31:17.165Z,41.01
2023-01-29T22:33:44.047Z,40.99
2023-01-29T22:36:11.041Z,40.99
2023-01-29T22:38:46.581Z,40.95
2023-01-29T22:41:17.461Z,40.97
2023-01-29T22:43:44.225Z,40.94
2023-01-29T22:46:12.264Z,41.08
2023-01-29T22:48:40.855Z,41.07
2023-01-29T22:51:07.782Z,40.99
2023-01-29T22:53:36.118Z,40.98
2023-01-29T22:56:06.081Z,40.94
2023-01-29T22:58:33.061Z,40.97
2023-01-29T23:01:04.626Z,40.95
2023-01-29T23:03:31.639Z,40.91
2023-01-29T23:05:58.730Z,40.91
2023-01-29T23:08:25.754Z,40.87
2023-01-29T23:10:58.688Z,40.88
2023-01-29T23:13:25.496Z,40.85
2023-01-29T23:15:59.600Z,40.86
2023-01-29T23:18:29.912Z,40.88
2023-01-29T23:21:00.361Z,40.81
2023-01-29T23:23:31.621Z,40.79
2023-01-29T23:25:59.491Z,40.80
2023-01-29T23:28:32.379Z,40.77
2023-01-29T23:30:59.393Z,40.75
2023-01-29T23:33:29.380Z,40.74
2023-01-29T23:35:58.957Z,40.83
2023-01-29T23:38:26.152Z,40.85
2023-01-29T23:40:58.976Z,40.73
2023-01-29T23:43:28.857Z,40.75
2023-01-29T23:45:56.179Z,40.73
2023-01-29T23:48:28.882Z,40.76
2023-01-29T23:50:59.194Z,40.77
2023-01-29T23:53:29.311Z,40.71
2023-01-29T23:55:58.729Z,40.79
2023-01-29T23:58:29.816Z,40.75
